createdAt,value
2023-04-16T09:29:38.259Z,94907.25
2023-04-16T15:21:12.562Z,94971.34
2023-04-16T15:24:11.281Z,94978.53
2023-04-16T15:27:12.739Z,94974.31
2023-04-16T15:47:26.930Z,94989.66
2023-04-16T15:49:54.655Z,94986.81
2023-04-16T15:52:22.530Z,94989.09
2023-04-16T15:55:07.018Z,94990.94
2023-04-16T15:57:37.197Z,94993.25
2023-04-16T16:00:31.294Z,94993.47
2023-04-16T16:03:05.825Z,94997.13
2023-04-16T16:08:13.994Z,94998.41
2023-04-16T16:13:37.330Z,95003.50
2023-04-16T16:16:04.679Z,94999.28
2023-04-16T16:18:32.049Z,95004.81
2023-04-16T16:26:23.252Z,95007.09
2023-04-16T16:28:51.458Z,95018.66
2023-04-16T16:34:06.885Z,95017.84
2023-04-16T16:36:37.006Z,95018.66
2023-04-16T16:44:30.066Z,95012.13
2023-04-16T18:25:48.784Z,95057.56
2023-04-16T18:28:15.847Z,95050.69
2023-04-16T18:30:42.882Z,95057.78
2023-04-16T18:35:40.644Z,95062.94
2023-04-16T18:38:07.766Z,95064.31
2023-04-16T18:40:35.109Z,95070.13
2023-04-16T18:43:03.282Z,95071.72
2023-04-16T18:45:30.232Z,95067.94
2023-04-16T18:47:59.000Z,95072.41
2023-04-16T18:50:26.260Z,95075.63
2023-04-16T18:52:53.778Z,95074.34
2023-04-16T18:55:20.545Z,95080.75
2023-04-16T18:57:47.232Z,95084.75
2023-04-16T19:00:16.347Z,95081.66
2023-04-16T19:02:43.551Z,95084.28
2023-04-16T19:05:10.566Z,95082.22
2023-04-16T19:07:37.702Z,95085.44
2023-04-16T19:10:06.267Z,95085.91
2023-04-16T19:12:33.124Z,95083.38
2023-04-16T19:15:00.227Z,95084.88
2023-04-16T19:17:28.540Z,95087.97
2023-04-16T19:19:55.431Z,95080.50
2023-04-16T19:22:25.330Z,95088.84
2023-04-16T19:24:52.394Z,95092.50
2023-04-16T19:27:19.408Z,95095.59
2023-04-16T19:29:46.841Z,95096.06
2023-04-16T19:32:14.573Z,95093.66
2023-04-16T19:34:42.760Z,95100.16
2023-04-16T19:37:09.560Z,95101.19
2023-04-16T19:39:36.602Z,95093.75
2023-04-16T19:42:04.290Z,95100.25
2023-04-16T19:44:32.407Z,95099.25
2023-04-16T19:46:59.392Z,95099.00
2023-04-16T19:49:33.759Z,95105.41
2023-04-16T19:52:04.335Z,95106.22
2023-04-16T19:54:33.551Z,95101.19
2023-04-16T19:57:01.404Z,95106.66
2023-04-16T19:59:32.592Z,95103.00
2023-04-16T20:01:59.831Z,95108.25
2023-04-16T20:04:26.776Z,95107.00
2023-04-16T20:06:53.825Z,95104.94
2023-04-16T20:09:22.104Z,95113.88
2023-04-16T20:11:49.124Z,95110.66
2023-04-16T20:14:15.917Z,95111.81
2023-04-16T20:16:43.650Z,95112.75
2023-04-16T20:19:10.853Z,95118.13
2023-04-16T20:21:37.856Z,95118.13
2023-04-16T20:24:06.638Z,95113.19
2023-04-16T20:26:36.600Z,95111.69
2023-04-16T20:29:03.320Z,95112.16
2023-04-16T20:31:30.372Z,95111.63
2023-04-16T20:33:57.411Z,95113.41
2023-04-16T20:36:24.494Z,95110.78
2023-04-16T20:38:53.734Z,95110.25
2023-04-16T20:41:21.315Z,95112.50
2023-04-16T20:43:50.289Z,95107.69
2023-04-16T20:46:17.764Z,95111.81
2023-04-16T20:48:44.613Z,95111.00
2023-04-16T20:51:12.841Z,95101.53
2023-04-16T20:53:41.372Z,95098.31
2023-04-16T20:56:09.186Z,95105.41
2023-04-16T20:58:36.748Z,95100.75
2023-04-16T21:01:05.967Z,95097.06
2023-04-16T21:03:32.853Z,95097.66
2023-04-16T21:06:02.109Z,95103.25
2023-04-16T21:08:29.213Z,95098.09
2023-04-16T21:10:57.546Z,95100.06
2023-04-16T21:13:24.444Z,95101.44
2023-04-16T21:15:52.081Z,95096.19
2023-04-16T21:18:20.861Z,95101.44
2023-04-16T21:20:47.800Z,95105.09
2023-04-16T21:23:14.693Z,95095.84
2023-04-16T21:25:41.402Z,95096.19
2023-04-16T21:28:08.227Z,95102.81
2023-04-16T21:30:35.291Z,95096.28
2023-04-16T21:33:02.096Z,95099.84
2023-04-16T21:35:31.516Z,95098.78
2023-04-16T21:37:58.270Z,95100.41
2023-04-16T21:40:24.922Z,95102.00
2023-04-16T21:42:55.498Z,95106.47
2023-04-16T21:45:22.115Z,95100.41
2023-04-16T21:47:48.940Z,95104.88
2023-04-16T21:50:15.924Z,95109.31
2023-04-16T21:52:46.833Z,95102.47
2023-04-16T21:55:14.422Z,95100.28
2023-04-16T21:57:41.330Z,95109.19
2023-04-16T22:00:14.119Z,95103.94
2023-04-16T22:05:11.028Z,95099.03
2023-04-16T22:07:37.872Z,95106.13
2023-04-16T22:10:09.015Z,95098.47
2023-04-16T22:12:39.840Z,95096.88
2023-04-16T22:15:08.228Z,95100.50
2023-04-16T22:17:35.163Z,95095.25
2023-04-16T22:20:05.244Z,95098.13
2023-04-16T22:22:31.933Z,95091.72
2023-04-16T22:24:58.858Z,95089.56
2023-04-16T22:27:27.364Z,95092.63
2023-04-16T22:29:54.553Z,95091.94
2023-04-16T22:32:22.234Z,95094.69
2023-04-16T22:34:49.183Z,95086.44
2023-04-16T22:37:16.373Z,95092.50
2023-04-16T22:39:43.486Z,95087.59
2023-04-16T22:42:12.869Z,95089.19
2023-04-16T22:44:41.333Z,95091.94
2023-04-16T22:47:08.082Z,95090.91
2023-04-16T22:49:35.060Z,95095.25
2023-04-16T22:52:02.834Z,95097.22
2023-04-16T22:54:29.695Z,95099.03
2023-04-16T22:56:56.786Z,95095.84
2023-04-16T22:59:23.547Z,95100.75
2023-04-16T23:01:52.218Z,95092.72
2023-04-16T23:04:19.182Z,95095.81
2023-04-16T23:06:46.345Z,95094.22
2023-04-16T23:09:13.545Z,95095.03
2023-04-16T23:11:40.742Z,95095.59
2023-04-16T23:14:08.610Z,95093.78
2023-04-16T23:16:35.839Z,95089.31
2023-04-16T23:19:04.129Z,95082.00
2023-04-16T23:21:31.555Z,95086.22
2023-04-16T23:23:59.081Z,95078.34
2023-04-16T23:26:25.820Z,95080.75
2023-04-16T23:28:52.516Z,95070.81
2023-04-16T23:31:19.210Z,95073.78
2023-04-16T23:33:46.420Z,95073.78
2023-04-16T23:36:14.622Z,95074.47
2023-04-16T23:38:41.398Z,95069.66
2023-04-16T23:41:10.770Z,95076.16
2023-04-16T23:43:40.047Z,95078.00
2023-04-16T23:46:06.804Z,95081.56
2023-04-16T23:48:33.693Z,95077.75
2023-04-16T23:51:01.262Z,95076.38
2023-04-16T23:53:29.322Z,95068.72
2023-04-16T23:55:56.139Z,95069.97
2023-04-16T23:58:22.802Z,95064.38
